sensor_id;sensor_type;location;lat;lon;timestamp;temperature;humidity
19864;DHT22;10094;48.820;9.226;2023-12-07T00:04:09;5.30;99.90
19864;DHT22;10094;48.820;9.226;2023-12-07T00:10:55;5.30;99.90
19864;DHT22;10094;48.820;9.226;2023-12-07T00:17:39;5.20;99.90
19864;DHT22;10094;48.820;9.226;2023-12-07T00:24:24;5.20;99.90
19864;DHT22;10094;48.820;9.226;2023-12-07T00:31:07;5.20;99.90
19864;DHT22;10094;48.820;9.226;2023-12-07T00:37:52;5.30;99.90
19864;DHT22;10094;48.820;9.226;2023-12-07T00:44:39;5.30;99.90
19864;DHT22;10094;48.820;9.226;2023-12-07T00:51:23;5.40;99.90
19864;DHT22;10094;48.820;9.226;2023-12-07T00:58:06;5.40;99.90
19864;DHT22;10094;48.820;9.226;2023-12-07T01:04:48;5.50;99.90
19864;DHT22;10094;48.820;9.226;2023-12-07T01:11:31;4.90;99.90
19864;DHT22;10094;48.820;9.226;2023-12-07T01:18:16;5.00;99.90
19864;DHT22;10094;48.820;9.226;2023-12-07T01:25:00;5.20;99.90
19864;DHT22;10094;48.820;9.226;2023-12-07T01:31:43;5.20;99.90
19864;DHT22;10094;48.820;9.226;2023-12-07T01:38:26;5.30;99.90
19864;DHT22;10094;48.820;9.226;2023-12-07T01:45:08;5.20;99.90
19864;DHT22;10094;48.820;9.226;2023-12-07T01:51:51;5.40;99.90
19864;DHT22;10094;48.820;9.226;2023-12-07T01:58:34;5.40;99.90
19864;DHT22;10094;48.820;9.226;2023-12-07T02:05:17;5.40;99.90
19864;DHT22;10094;48.820;9.226;2023-12-07T02:12:00;5.30;99.90
19864;DHT22;10094;48.820;9.226;2023-12-07T02:18:50;5.20;99.90
19864;DHT22;10094;48.820;9.226;2023-12-07T02:25:44;5.30;99.90
19864;DHT22;10094;48.820;9.226;2023-12-07T02:32:54;5.20;99.90
19864;DHT22;10094;48.820;9.226;2023-12-07T02:39:36;5.10;99.90
19864;DHT22;10094;48.820;9.226;2023-12-07T02:46:19;4.90;99.90
19864;DHT22;10094;48.820;9.226;2023-12-07T02:53:02;4.90;99.90
19864;DHT22;10094;48.820;9.226;2023-12-07T02:59:44;4.60;99.90
19864;DHT22;10094;48.820;9.226;2023-12-07T03:06:27;4.60;99.90
19864;DHT22;10094;48.820;9.226;2023-12-07T03:13:09;4.50;99.90
19864;DHT22;10094;48.820;9.226;2023-12-07T03:19:52;4.40;99.90
19864;DHT22;10094;48.820;9.226;2023-12-07T03:26:35;4.10;99.90
19864;DHT22;10094;48.820;9.226;2023-12-07T03:33:17;4.00;99.90
19864;DHT22;10094;48.820;9.226;2023-12-07T03:40:00;3.80;99.90
19864;DHT22;10094;48.820;9.226;2023-12-07T03:46:43;3.60;99.90
19864;DHT22;10094;48.820;9.226;2023-12-07T03:53:25;3.60;99.90
19864;DHT22;10094;48.820;9.226;2023-12-07T04:00:11;3.40;99.90
19864;DHT22;10094;48.820;9.226;2023-12-07T04:06:54;3.20;99.90
19864;DHT22;10094;48.820;9.226;2023-12-07T04:13:36;3.20;99.90
19864;DHT22;10094;48.820;9.226;2023-12-07T04:20:19;3.30;99.90
19864;DHT22;10094;48.820;9.226;2023-12-07T04:27:01;3.20;99.90
19864;DHT22;10094;48.820;9.226;2023-12-07T04:33:44;3.00;99.90
19864;DHT22;10094;48.820;9.226;2023-12-07T04:40:27;2.90;99.90
19864;DHT22;10094;48.820;9.226;2023-12-07T04:47:09;2.90;99.90
19864;DHT22;10094;48.820;9.226;2023-12-07T04:53:52;2.70;99.90
19864;DHT22;10094;48.820;9.226;2023-12-07T05:00:39;2.60;99.90
19864;DHT22;10094;48.820;9.226;2023-12-07T05:07:22;2.50;99.90
19864;DHT22;10094;48.820;9.226;2023-12-07T05:14:04;2.50;99.90
19864;DHT22;10094;48.820;9.226;2023-12-07T05:20:47;2.40;99.90
19864;DHT22;10094;48.820;9.226;2023-12-07T05:27:30;2.30;99.90
19864;DHT22;10094;48.820;9.226;2023-12-07T05:34:12;2.20;99.90
19864;DHT22;10094;48.820;9.226;2023-12-07T05:40:56;2.10;99.90
19864;DHT22;10094;48.820;9.226;2023-12-07T05:47:38;2.10;99.90
19864;DHT22;10094;48.820;9.226;2023-12-07T05:54:21;2.10;99.90
19864;DHT22;10094;48.820;9.226;2023-12-07T06:01:05;2.10;99.90
19864;DHT22;10094;48.820;9.226;2023-12-07T06:07:47;2.20;99.90
19864;DHT22;10094;48.820;9.226;2023-12-07T06:14:30;2.20;99.90
19864;DHT22;10094;48.820;9.226;2023-12-07T06:21:14;2.10;99.90
19864;DHT22;10094;48.820;9.226;2023-12-07T06:27:57;2.10;99.90
19864;DHT22;10094;48.820;9.226;2023-12-07T06:34:40;2.10;99.90
19864;DHT22;10094;48.820;9.226;2023-12-07T06:41:23;2.10;99.90
19864;DHT22;10094;48.820;9.226;2023-12-07T06:48:05;2.10;99.90
19864;DHT22;10094;48.820;9.226;2023-12-07T06:54:48;2.00;99.90
19864;DHT22;10094;48.820;9.226;2023-12-07T07:01:31;1.90;99.90
19864;DHT22;10094;48.820;9.226;2023-12-07T07:08:15;1.90;99.90
19864;DHT22;10094;48.820;9.226;2023-12-07T07:14:58;2.00;99.90
19864;DHT22;10094;48.820;9.226;2023-12-07T07:21:40;2.00;99.90
19864;DHT22;10094;48.820;9.226;2023-12-07T07:28:23;2.00;99.90
19864;DHT22;10094;48.820;9.226;2023-12-07T07:35:12;2.00;99.90
19864;DHT22;10094;48.820;9.226;2023-12-07T07:41:56;2.00;99.90
19864;DHT22;10094;48.820;9.226;2023-12-07T07:48:40;1.90;99.90
19864;DHT22;10094;48.820;9.226;2023-12-07T07:55:24;2.00;99.90
19864;DHT22;10094;48.820;9.226;2023-12-07T08:02:07;2.00;99.90
19864;DHT22;10094;48.820;9.226;2023-12-07T08:08:49;2.40;99.90
19864;DHT22;10094;48.820;9.226;2023-12-07T08:16:01;3.30;99.90
19864;DHT22;10094;48.820;9.226;2023-12-07T08:22:44;4.00;99.90
19864;DHT22;10094;48.820;9.226;2023-12-07T08:29:27;4.50;99.90
19864;DHT22;10094;48.820;9.226;2023-12-07T08:36:10;5.30;99.90
19864;DHT22;10094;48.820;9.226;2023-12-07T08:42:55;6.20;99.90
19864;DHT22;10094;48.820;9.226;2023-12-07T08:49:37;8.50;99.90
19864;DHT22;10094;48.820;9.226;2023-12-07T08:56:20;9.90;98.20
19864;DHT22;10094;48.820;9.226;2023-12-07T09:03:03;10.90;93.50
19864;DHT22;10094;48.820;9.226;2023-12-07T09:09:46;12.10;92.20
19864;DHT22;10094;48.820;9.226;2023-12-07T09:16:30;12.80;91.20
19864;DHT22;10094;48.820;9.226;2023-12-07T09:23:13;14.00;88.80
19864;DHT22;10094;48.820;9.226;2023-12-07T09:29:58;13.70;85.00
19864;DHT22;10094;48.820;9.226;2023-12-07T09:36:40;13.50;84.70
19864;DHT22;10094;48.820;9.226;2023-12-07T09:43:23;14.00;85.00
19864;DHT22;10094;48.820;9.226;2023-12-07T09:50:09;13.10;83.00
19864;DHT22;10094;48.820;9.226;2023-12-07T09:56:54;12.40;85.90
19864;DHT22;10094;48.820;9.226;2023-12-07T10:03:38;10.90;85.50
19864;DHT22;10094;48.820;9.226;2023-12-07T10:10:22;10.30;88.20
19864;DHT22;10094;48.820;9.226;2023-12-07T10:17:06;10.80;86.50
19864;DHT22;10094;48.820;9.226;2023-12-07T10:23:52;10.20;87.20
19864;DHT22;10094;48.820;9.226;2023-12-07T10:30:59;10.10;88.50
19864;DHT22;10094;48.820;9.226;2023-12-07T10:37:43;9.10;90.20
19864;DHT22;10094;48.820;9.226;2023-12-07T10:44:28;8.40;92.20
19864;DHT22;10094;48.820;9.226;2023-12-07T10:51:21;7.60;94.70
19864;DHT22;10094;48.820;9.226;2023-12-07T10:58:05;7.10;98.00
19864;DHT22;10094;48.820;9.226;2023-12-07T11:04:51;6.90;99.40
19864;DHT22;10094;48.820;9.226;2023-12-07T11:18:20;6.40;99.90
19864;DHT22;10094;48.820;9.226;2023-12-07T11:25:03;6.60;99.00
19864;DHT22;10094;48.820;9.226;2023-12-07T11:31:49;6.50;98.80
19864;DHT22;10094;48.820;9.226;2023-12-07T11:38:32;6.50;96.80
19864;DHT22;10094;48.820;9.226;2023-12-07T11:45:15;6.30;95.00
19864;DHT22;10094;48.820;9.226;2023-12-07T11:51:59;6.30;95.10
19864;DHT22;10094;48.820;9.226;2023-12-07T11:58:42;6.60;94.90
19864;DHT22;10094;48.820;9.226;2023-12-07T12:05:27;6.70;92.60
19864;DHT22;10094;48.820;9.226;2023-12-07T12:12:11;6.90;92.40
19864;DHT22;10094;48.820;9.226;2023-12-07T12:18:56;6.90;92.30
19864;DHT22;10094;48.820;9.226;2023-12-07T12:25:40;6.90;92.80
19864;DHT22;10094;48.820;9.226;2023-12-07T12:32:23;6.90;92.40
19864;DHT22;10094;48.820;9.226;2023-12-07T12:39:06;6.70;92.40
19864;DHT22;10094;48.820;9.226;2023-12-07T12:46:02;7.10;92.70
19864;DHT22;10094;48.820;9.226;2023-12-07T12:52:49;7.10;92.30
19864;DHT22;10094;48.820;9.226;2023-12-07T12:59:32;7.10;93.40
19864;DHT22;10094;48.820;9.226;2023-12-07T13:06:15;7.10;92.10
19864;DHT22;10094;48.820;9.226;2023-12-07T13:12:59;7.20;94.30
19864;DHT22;10094;48.820;9.226;2023-12-07T13:19:42;7.30;91.50
19864;DHT22;10094;48.820;9.226;2023-12-07T13:26:25;7.20;90.40
19864;DHT22;10094;48.820;9.226;2023-12-07T13:33:07;6.90;88.50
19864;DHT22;10094;48.820;9.226;2023-12-07T13:40:07;7.00;90.20
19864;DHT22;10094;48.820;9.226;2023-12-07T13:46:53;7.00;90.90
19864;DHT22;10094;48.820;9.226;2023-12-07T13:53:36;7.00;91.00
19864;DHT22;10094;48.820;9.226;2023-12-07T14:00:23;6.90;91.10
19864;DHT22;10094;48.820;9.226;2023-12-07T14:07:14;6.90;91.20
19864;DHT22;10094;48.820;9.226;2023-12-07T14:13:57;7.00;91.10
19864;DHT22;10094;48.820;9.226;2023-12-07T14:20:41;7.10;90.00
19864;DHT22;10094;48.820;9.226;2023-12-07T14:27:46;7.00;87.70
19864;DHT22;10094;48.820;9.226;2023-12-07T14:34:29;6.90;87.50
19864;DHT22;10094;48.820;9.226;2023-12-07T14:41:17;6.80;87.50
19864;DHT22;10094;48.820;9.226;2023-12-07T14:48:00;6.50;85.50
19864;DHT22;10094;48.820;9.226;2023-12-07T14:54:43;6.40;86.00
19864;DHT22;10094;48.820;9.226;2023-12-07T15:01:26;6.30;87.00
19864;DHT22;10094;48.820;9.226;2023-12-07T15:08:08;6.00;85.40
19864;DHT22;10094;48.820;9.226;2023-12-07T15:14:52;5.80;86.40
19864;DHT22;10094;48.820;9.226;2023-12-07T15:21:35;5.60;85.80
19864;DHT22;10094;48.820;9.226;2023-12-07T15:28:17;5.50;88.30
19864;DHT22;10094;48.820;9.226;2023-12-07T15:35:00;5.40;88.60
19864;DHT22;10094;48.820;9.226;2023-12-07T15:41:42;5.40;87.00
19864;DHT22;10094;48.820;9.226;2023-12-07T15:48:26;5.10;87.60
19864;DHT22;10094;48.820;9.226;2023-12-07T15:55:10;5.00;91.50
19864;DHT22;10094;48.820;9.226;2023-12-07T16:01:53;4.90;90.00
19864;DHT22;10094;48.820;9.226;2023-12-07T16:08:35;4.80;89.20
19864;DHT22;10094;48.820;9.226;2023-12-07T16:15:18;4.70;90.20
19864;DHT22;10094;48.820;9.226;2023-12-07T16:22:01;4.50;90.20
19864;DHT22;10094;48.820;9.226;2023-12-07T16:28:44;4.40;90.70
19864;DHT22;10094;48.820;9.226;2023-12-07T16:35:27;4.20;91.30
19864;DHT22;10094;48.820;9.226;2023-12-07T16:42:11;4.20;92.70
19864;DHT22;10094;48.820;9.226;2023-12-07T16:48:53;4.10;95.70
19864;DHT22;10094;48.820;9.226;2023-12-07T16:55:36;4.10;95.30
19864;DHT22;10094;48.820;9.226;2023-12-07T17:02:19;4.10;94.90
19864;DHT22;10094;48.820;9.226;2023-12-07T17:09:02;4.00;94.80
19864;DHT22;10094;48.820;9.226;2023-12-07T17:15:56;4.00;95.40
19864;DHT22;10094;48.820;9.226;2023-12-07T17:22:41;3.90;96.60
19864;DHT22;10094;48.820;9.226;2023-12-07T17:29:23;3.70;96.20
19864;DHT22;10094;48.820;9.226;2023-12-07T17:36:07;3.60;97.10
19864;DHT22;10094;48.820;9.226;2023-12-07T17:42:50;3.50;97.80
19864;DHT22;10094;48.820;9.226;2023-12-07T17:49:34;3.40;99.20
19864;DHT22;10094;48.820;9.226;2023-12-07T17:56:17;3.50;99.90
19864;DHT22;10094;48.820;9.226;2023-12-07T18:02:59;3.30;99.90
19864;DHT22;10094;48.820;9.226;2023-12-07T18:09:44;3.30;99.90
19864;DHT22;10094;48.820;9.226;2023-12-07T18:16:27;3.10;99.90
19864;DHT22;10094;48.820;9.226;2023-12-07T18:23:12;3.10;99.90
19864;DHT22;10094;48.820;9.226;2023-12-07T18:29:55;3.20;99.90
19864;DHT22;10094;48.820;9.226;2023-12-07T18:36:37;3.10;99.90
19864;DHT22;10094;48.820;9.226;2023-12-07T18:43:20;3.00;99.90
19864;DHT22;10094;48.820;9.226;2023-12-07T18:50:07;2.90;99.90
19864;DHT22;10094;48.820;9.226;2023-12-07T18:56:50;2.80;99.90
19864;DHT22;10094;48.820;9.226;2023-12-07T19:03:32;2.30;99.90
19864;DHT22;10094;48.820;9.226;2023-12-07T19:10:15;2.30;99.90
19864;DHT22;10094;48.820;9.226;2023-12-07T19:16:57;2.20;99.90
19864;DHT22;10094;48.820;9.226;2023-12-07T19:23:40;2.00;99.90
19864;DHT22;10094;48.820;9.226;2023-12-07T19:30:23;1.90;99.90
19864;DHT22;10094;48.820;9.226;2023-12-07T19:37:06;1.60;99.90
19864;DHT22;10094;48.820;9.226;2023-12-07T19:43:49;1.60;99.90
19864;DHT22;10094;48.820;9.226;2023-12-07T19:50:31;1.70;99.90
19864;DHT22;10094;48.820;9.226;2023-12-07T19:57:14;1.90;99.90
19864;DHT22;10094;48.820;9.226;2023-12-07T20:03:57;1.80;99.90
19864;DHT22;10094;48.820;9.226;2023-12-07T20:10:40;2.00;99.90
19864;DHT22;10094;48.820;9.226;2023-12-07T20:17:22;1.90;99.90
19864;DHT22;10094;48.820;9.226;2023-12-07T20:24:11;2.00;99.90
19864;DHT22;10094;48.820;9.226;2023-12-07T20:30:55;1.90;99.90
19864;DHT22;10094;48.820;9.226;2023-12-07T20:37:38;1.90;99.90
19864;DHT22;10094;48.820;9.226;2023-12-07T20:44:22;1.90;99.90
19864;DHT22;10094;48.820;9.226;2023-12-07T20:51:05;1.70;99.90
19864;DHT22;10094;48.820;9.226;2023-12-07T20:57:47;1.70;99.90
19864;DHT22;10094;48.820;9.226;2023-12-07T21:04:31;1.70;99.90
19864;DHT22;10094;48.820;9.226;2023-12-07T21:11:13;2.00;99.90
19864;DHT22;10094;48.820;9.226;2023-12-07T21:17:59;2.20;99.90
19864;DHT22;10094;48.820;9.226;2023-12-07T21:24:42;2.10;99.90
19864;DHT22;10094;48.820;9.226;2023-12-07T21:31:25;1.70;99.90
19864;DHT22;10094;48.820;9.226;2023-12-07T21:38:07;1.90;99.90
19864;DHT22;10094;48.820;9.226;2023-12-07T21:44:51;2.30;99.90
19864;DHT22;10094;48.820;9.226;2023-12-07T21:51:35;2.40;99.90
19864;DHT22;10094;48.820;9.226;2023-12-07T21:58:17;2.40;99.90
19864;DHT22;10094;48.820;9.226;2023-12-07T22:05:01;2.40;99.90
19864;DHT22;10094;48.820;9.226;2023-12-07T22:11:45;2.40;99.90
19864;DHT22;10094;48.820;9.226;2023-12-07T22:18:28;2.40;99.90
19864;DHT22;10094;48.820;9.226;2023-12-07T22:25:12;2.50;99.90
19864;DHT22;10094;48.820;9.226;2023-12-07T22:31:54;2.70;99.90
19864;DHT22;10094;48.820;9.226;2023-12-07T22:38:37;2.80;99.90
19864;DHT22;10094;48.820;9.226;2023-12-07T22:45:20;2.80;99.90
19864;DHT22;10094;48.820;9.226;2023-12-07T22:52:04;2.90;99.90
19864;DHT22;10094;48.820;9.226;2023-12-07T22:58:48;3.20;99.90
19864;DHT22;10094;48.820;9.226;2023-12-07T23:05:31;3.10;99.90
19864;DHT22;10094;48.820;9.226;2023-12-07T23:12:14;2.70;99.90
19864;DHT22;10094;48.820;9.226;2023-12-07T23:18:58;2.80;99.90
19864;DHT22;10094;48.820;9.226;2023-12-07T23:25:41;2.90;99.90
19864;DHT22;10094;48.820;9.226;2023-12-07T23:32:25;3.10;99.90
19864;DHT22;10094;48.820;9.226;2023-12-07T23:39:08;3.20;99.90
19864;DHT22;10094;48.820;9.226;2023-12-07T23:45:52;3.40;99.90
19864;DHT22;10094;48.820;9.226;2023-12-07T23:52:34;3.20;99.90
19864;DHT22;10094;48.820;9.226;2023-12-07T23:59:16;3.40;99.90
